Time;durP1;ratioP1;P1;durP2;ratioP2;P2;SDS_P1;SDS_P2;PMS_P1;PMS_P2;Temp;Humidity;BMP_temperature;BMP_pressure;BME280_temperature;BME280_humidity;BME280_pressure;Samples;Min_cycle;Max_cycle;Signal;HPM_P1;HPM_P2
2023/05/28 00:01:55;;;;;;;12.07;8.37;;;16.20;1.00;;;;;;5137820;27;20472;-48
2023/05/28 00:04:21;;;;;;;9.60;7.90;;;16.20;1.00;;;;;;5138418;27;20186;-46
2023/05/28 00:06:48;;;;;;;10.23;7.50;;;16.20;1.00;;;;;;5138374;27;20477;-48
2023/05/28 00:09:14;;;;;;;8.50;7.60;;;16.20;1.00;;;;;;5138274;27;20447;-47
2023/05/28 00:11:40;;;;;;;8.73;7.90;;;16.20;1.00;;;;;;5136412;27;20817;-48
2023/05/28 00:14:06;;;;;;;8.23;7.13;;;16.20;1.00;;;;;;5136421;27;20444;-47
2023/05/28 00:16:35;;;;;;;8.90;8.00;;;16.20;1.00;;;;;;5136694;27;20232;-48
2023/05/28 00:19:04;;;;;;;8.90;7.43;;;16.20;1.00;;;;;;5136668;27;20240;-47
2023/05/28 00:21:32;;;;;;;10.03;8.97;;;16.20;1.00;;;;;;5136739;27;20471;-47
2023/05/28 00:23:58;;;;;;;12.43;8.17;;;16.10;1.00;;;;;;5136856;27;20514;-47
2023/05/28 00:26:25;;;;;;;9.07;7.80;;;16.10;1.00;;;;;;5137572;27;20397;-47
2023/05/28 00:28:51;;;;;;;9.97;8.60;;;16.10;1.00;;;;;;5137068;27;20528;-47
2023/05/28 00:31:17;;;;;;;9.20;7.90;;;16.00;1.00;;;;;;5136548;27;20429;-48
2023/05/28 00:33:43;;;;;;;10.00;9.00;;;16.00;1.00;;;;;;5136825;27;20175;-48
2023/05/28 00:36:12;;;;;;;9.10;7.67;;;15.90;1.00;;;;;;5136341;27;20215;-47
2023/05/28 00:38:37;;;;;;;8.93;8.03;;;15.90;1.00;;;;;;5137555;27;20431;-47
2023/05/28 00:41:03;;;;;;;9.57;7.50;;;15.90;1.00;;;;;;5137343;27;20424;-48
2023/05/28 00:43:28;;;;;;;11.20;9.17;;;15.90;1.00;;;;;;5137704;27;20179;-49
2023/05/28 00:45:57;;;;;;;11.87;8.20;;;15.90;1.00;;;;;;5138158;27;20222;-51
2023/05/28 00:48:23;;;;;;;9.47;8.57;;;15.90;1.00;;;;;;5118855;27;20183;-49
2023/05/28 00:50:49;;;;;;;10.13;8.47;;;15.90;1.00;;;;;;5136700;27;20401;-47
2023/05/28 00:53:15;;;;;;;12.50;8.60;;;15.80;1.00;;;;;;5137793;27;20499;-47
2023/05/28 00:55:41;;;;;;;8.57;7.63;;;15.80;1.00;;;;;;5118859;28;20522;-49
2023/05/28 00:58:07;;;;;;;9.30;8.40;;;15.70;1.00;;;;;;5136459;27;20518;-49
2023/05/28 01:00:34;;;;;;;9.47;7.13;;;15.70;1.00;;;;;;5137656;27;20689;-47
2023/05/28 01:03:00;;;;;;;9.00;8.10;;;15.60;1.00;;;;;;5138057;27;20456;-47
2023/05/28 01:05:26;;;;;;;8.87;7.97;;;15.60;1.00;;;;;;5137143;28;20424;-49
2023/05/28 01:07:52;;;;;;;8.43;7.57;;;15.60;1.00;;;;;;5137763;27;20408;-50
2023/05/28 01:10:17;;;;;;;13.73;8.97;;;15.50;1.00;;;;;;5119301;27;20189;-50
2023/05/28 01:12:43;;;;;;;13.30;9.17;;;15.50;1.00;;;;;;5137378;27;20783;-48
2023/05/28 01:15:09;;;;;;;9.90;7.70;;;15.50;1.00;;;;;;5141916;27;20205;-50
2023/05/28 01:17:36;;;;;;;9.40;8.03;;;15.50;1.00;;;;;;5141869;27;20420;-46
2023/05/28 01:20:05;;;;;;;10.30;8.00;;;15.50;1.00;;;;;;5141623;27;20533;-47
2023/05/28 01:22:37;;;;;;;9.13;7.80;;;15.50;1.00;;;;;;5141341;27;20563;-48
2023/05/28 01:25:09;;;;;;;8.67;7.77;;;15.50;1.00;;;;;;5141418;27;20508;-46
2023/05/28 01:27:41;;;;;;;9.90;7.37;;;15.50;1.00;;;;;;5123151;27;20456;-47
2023/05/28 01:30:11;;;;;;;7.97;7.17;;;15.40;1.00;;;;;;5140119;27;20486;-49
2023/05/28 01:32:38;;;;;;;8.73;7.53;;;15.30;1.00;;;;;;5140408;27;20894;-47
2023/05/28 01:35:05;;;;;;;10.50;7.50;;;15.30;1.00;;;;;;5140020;27;20425;-47
2023/05/28 01:37:33;;;;;;;9.03;8.13;;;15.20;1.00;;;;;;5122851;27;20433;-46
2023/05/28 01:40:00;;;;;;;8.63;7.60;;;15.20;1.00;;;;;;5122798;27;20429;-47
2023/05/28 01:42:26;;;;;;;11.13;7.50;;;15.20;1.00;;;;;;5123140;27;20558;-49
2023/05/28 01:44:52;;;;;;;8.17;7.30;;;15.20;1.00;;;;;;5141429;27;20405;-48
2023/05/28 01:47:18;;;;;;;8.07;6.77;;;15.20;1.00;;;;;;5141586;27;20462;-47
2023/05/28 01:49:44;;;;;;;11.17;7.60;;;15.20;1.00;;;;;;5140662;27;20437;-50
2023/05/28 01:52:09;;;;;;;10.00;8.27;;;15.20;1.00;;;;;;5140623;27;20829;-46
2023/05/28 01:54:35;;;;;;;8.47;6.57;;;15.20;1.00;;;;;;5136768;27;20449;-48
2023/05/28 01:57:01;;;;;;;10.77;7.70;;;15.10;1.00;;;;;;5138074;27;20457;-49
2023/05/28 01:59:27;;;;;;;9.30;8.20;;;15.20;1.00;;;;;;5137520;27;20226;-46
2023/05/28 02:01:53;;;;;;;10.23;8.80;;;15.20;1.00;;;;;;5137722;27;20475;-46
2023/05/28 02:04:18;;;;;;;9.83;8.30;;;15.20;1.00;;;;;;5137769;27;20626;-49
2023/05/28 02:06:47;;;;;;;10.77;7.67;;;15.20;1.00;;;;;;5137338;27;20190;-48
2023/05/28 02:09:12;;;;;;;10.60;8.10;;;15.10;1.00;;;;;;5139108;27;20564;-47
2023/05/28 02:11:38;;;;;;;7.60;6.90;;;15.10;1.00;;;;;;5140535;27;20432;-46
2023/05/28 02:14:04;;;;;;;7.70;6.60;;;15.10;1.00;;;;;;5140626;27;20300;-48
2023/05/28 02:16:30;;;;;;;9.13;8.23;;;15.10;1.00;;;;;;5139829;27;20179;-49
2023/05/28 02:18:58;;;;;;;9.53;8.17;;;15.00;1.00;;;;;;5140182;27;20439;-49
2023/05/28 02:21:23;;;;;;;9.27;8.10;;;15.00;1.00;;;;;;5140104;27;20881;-46
2023/05/28 02:23:49;;;;;;;9.73;7.83;;;15.00;1.00;;;;;;5139542;27;20538;-48
2023/05/28 02:26:15;;;;;;;9.43;7.60;;;15.00;1.00;;;;;;5139620;27;20179;-47
2023/05/28 02:28:45;;;;;;;10.40;7.77;;;15.00;1.00;;;;;;5140285;27;20497;-47
2023/05/28 02:31:11;;;;;;;9.83;7.37;;;15.00;1.00;;;;;;5139454;27;20232;-47
2023/05/28 02:33:38;;;;;;;8.57;7.13;;;15.00;1.00;;;;;;5139928;27;20424;-49
2023/05/28 02:36:04;;;;;;;8.90;8.00;;;14.90;1.00;;;;;;5140616;27;20694;-47
2023/05/28 02:38:29;;;;;;;10.93;8.53;;;15.00;1.00;;;;;;5140428;27;20427;-49
2023/05/28 02:40:55;;;;;;;8.80;7.47;;;14.90;1.00;;;;;;5140349;27;20745;-47
2023/05/28 02:43:21;;;;;;;9.63;7.57;;;14.90;1.00;;;;;;5140061;27;20458;-49
2023/05/28 02:45:46;;;;;;;6.93;6.23;;;14.90;1.00;;;;;;5140588;27;20240;-47
2023/05/28 02:48:12;;;;;;;7.73;6.80;;;14.80;1.00;;;;;;5139638;27;20194;-47
2023/05/28 02:50:37;;;;;;;8.33;7.10;;;14.80;1.00;;;;;;5140253;27;20179;-47
2023/05/28 02:53:03;;;;;;;7.80;7.00;;;14.80;1.00;;;;;;5139918;27;20294;-46
2023/05/28 02:55:34;;;;;;;8.87;7.50;;;14.80;1.00;;;;;;5140212;27;20266;-47
2023/05/28 02:58:00;;;;;;;8.57;7.73;;;14.70;1.00;;;;;;5136429;27;20246;-46
2023/05/28 03:00:26;;;;;;;7.27;6.50;;;14.70;1.00;;;;;;5139129;27;20863;-47
2023/05/28 03:02:51;;;;;;;8.80;7.03;;;14.70;1.00;;;;;;5139474;27;20309;-50
2023/05/28 03:05:17;;;;;;;7.70;6.80;;;14.70;1.00;;;;;;5138862;27;20191;-48
2023/05/28 03:07:43;;;;;;;10.07;7.50;;;14.70;1.00;;;;;;5139219;27;20253;-48
2023/05/28 03:10:09;;;;;;;7.33;6.30;;;14.60;1.00;;;;;;5138371;27;20512;-47
2023/05/28 03:12:36;;;;;;;8.13;7.10;;;14.60;1.00;;;;;;5136992;27;20179;-48
2023/05/28 03:15:02;;;;;;;8.10;6.10;;;14.60;1.00;;;;;;5137128;27;20473;-48
2023/05/28 03:17:27;;;;;;;8.93;6.70;;;14.60;1.00;;;;;;5136006;27;20452;-47
2023/05/28 03:19:53;;;;;;;10.17;7.30;;;14.60;1.00;;;;;;5135847;27;20465;-47
2023/05/28 03:22:20;;;;;;;7.30;6.30;;;14.50;1.00;;;;;;5136388;27;20586;-49
2023/05/28 03:24:45;;;;;;;7.27;6.57;;;14.50;1.00;;;;;;5136875;27;20544;-47
2023/05/28 03:27:11;;;;;;;11.10;7.30;;;14.50;1.00;;;;;;5137354;27;20436;-51
2023/05/28 03:29:36;;;;;;;7.33;6.33;;;14.50;1.00;;;;;;5138456;27;20494;-48
2023/05/28 03:32:02;;;;;;;7.93;6.23;;;14.50;1.00;;;;;;5139493;27;20178;-49
2023/05/28 03:34:28;;;;;;;8.37;7.50;;;14.50;1.00;;;;;;5138697;27;20181;-47
2023/05/28 03:36:53;;;;;;;6.87;6.17;;;14.50;1.00;;;;;;5138098;27;20171;-50
2023/05/28 03:39:19;;;;;;;7.53;6.70;;;14.50;1.00;;;;;;5138431;27;20432;-47
2023/05/28 03:41:45;;;;;;;7.63;6.27;;;14.40;1.00;;;;;;5138932;27;20275;-48
2023/05/28 03:44:10;;;;;;;8.57;6.50;;;14.40;1.00;;;;;;5138599;27;20175;-47
2023/05/28 03:46:36;;;;;;;8.03;6.87;;;14.50;1.00;;;;;;5138206;27;20448;-50
2023/05/28 03:49:02;;;;;;;7.53;6.43;;;14.40;1.00;;;;;;5138306;27;20200;-47
2023/05/28 03:51:27;;;;;;;7.73;6.37;;;14.50;1.00;;;;;;5137801;27;20494;-47
2023/05/28 03:53:53;;;;;;;9.50;6.90;;;14.50;1.00;;;;;;5118552;27;20685;-46
2023/05/28 03:56:19;;;;;;;6.77;5.80;;;14.50;1.00;;;;;;5138267;27;20230;-48
2023/05/28 03:58:48;;;;;;;8.23;7.43;;;14.50;1.00;;;;;;5137506;27;20262;-49
2023/05/28 04:01:13;;;;;;;7.73;7.03;;;14.40;1.00;;;;;;5137344;27;20486;-47
2023/05/28 04:03:39;;;;;;;8.67;7.23;;;14.40;1.00;;;;;;5136715;27;20428;-47
2023/05/28 04:06:06;;;;;;;11.57;7.07;;;14.40;1.00;;;;;;5136743;27;20285;-45
2023/05/28 04:08:32;;;;;;;8.80;7.37;;;14.30;1.00;;;;;;5136070;27;20537;-46
2023/05/28 04:10:58;;;;;;;7.60;6.90;;;14.20;1.00;;;;;;5135878;27;20404;-46
2023/05/28 04:13:23;;;;;;;8.37;6.87;;;14.20;1.00;;;;;;5135999;27;20307;-47
2023/05/28 04:15:49;;;;;;;9.37;6.93;;;14.10;1.00;;;;;;5137603;27;20428;-48
2023/05/28 04:18:15;;;;;;;9.00;6.70;;;14.20;1.00;;;;;;5137363;27;20178;-45
2023/05/28 04:20:41;;;;;;;8.77;7.47;;;14.20;1.00;;;;;;5137253;27;20227;-47
2023/05/28 04:23:07;;;;;;;7.73;7.03;;;14.30;1.00;;;;;;5137966;27;20479;-47
2023/05/28 04:25:33;;;;;;;10.77;7.80;;;14.30;1.00;;;;;;5138640;27;20413;-47
2023/05/28 04:28:00;;;;;;;7.03;6.33;;;14.40;1.00;;;;;;5138385;27;20509;-50
2023/05/28 04:30:26;;;;;;;7.40;5.80;;;14.40;1.00;;;;;;5138184;27;20417;-48
2023/05/28 04:32:52;;;;;;;7.17;6.47;;;14.50;1.00;;;;;;5138063;27;20424;-46
2023/05/28 04:35:18;;;;;;;9.83;7.97;;;14.50;1.00;;;;;;5138477;27;20182;-47
2023/05/28 04:37:44;;;;;;;7.97;7.07;;;14.50;1.00;;;;;;5119991;27;20656;-48
2023/05/28 04:40:13;;;;;;;8.07;6.70;;;14.50;1.00;;;;;;5138000;27;20413;-48
2023/05/28 04:42:42;;;;;;;7.50;6.63;;;14.60;1.00;;;;;;5137772;27;20207;-49
2023/05/28 04:45:09;;;;;;;8.03;7.17;;;14.60;1.00;;;;;;5137703;27;20416;-49
2023/05/28 04:47:37;;;;;;;8.10;7.30;;;14.70;1.00;;;;;;5137559;27;20412;-50
2023/05/28 04:50:04;;;;;;;9.17;6.83;;;14.80;1.00;;;;;;5138283;27;20685;-46
2023/05/28 04:52:35;;;;;;;8.67;7.53;;;14.80;1.00;;;;;;5137717;27;20463;-50
2023/05/28 04:55:01;;;;;;;11.77;7.50;;;14.90;1.00;;;;;;5137841;27;20431;-48
2023/05/28 04:57:27;;;;;;;11.03;8.60;;;14.80;1.00;;;;;;5137813;27;20536;-48
2023/05/28 04:59:53;;;;;;;7.80;6.73;;;14.70;1.00;;;;;;5137600;27;20437;-48
2023/05/28 05:02:18;;;;;;;7.43;6.67;;;14.60;1.00;;;;;;5137238;28;20477;-47
2023/05/28 05:04:47;;;;;;;9.00;7.47;;;14.60;1.00;;;;;;5137807;28;20195;-47
2023/05/28 05:07:13;;;;;;;7.40;6.60;;;14.70;1.00;;;;;;5136729;28;20171;-48
2023/05/28 05:09:39;;;;;;;7.77;6.60;;;14.80;1.00;;;;;;5135638;28;20428;-47
2023/05/28 05:12:05;;;;;;;7.00;6.30;;;14.90;1.00;;;;;;5134890;28;20686;-49
2023/05/28 05:14:31;;;;;;;9.63;7.10;;;15.10;1.00;;;;;;5135302;28;20387;-47
2023/05/28 05:16:57;;;;;;;7.57;6.77;;;15.20;1.00;;;;;;5136006;28;20755;-49
2023/05/28 05:19:22;;;;;;;8.03;6.93;;;15.30;1.00;;;;;;5135358;28;20197;-49
2023/05/28 05:21:48;;;;;;;8.43;6.80;;;15.40;1.00;;;;;;5135804;28;20211;-48
2023/05/28 05:24:14;;;;;;;7.30;6.60;;;15.50;1.00;;;;;;5136574;28;20243;-47
2023/05/28 05:26:40;;;;;;;7.70;6.80;;;15.60;1.00;;;;;;5137645;28;20175;-48
2023/05/28 05:29:05;;;;;;;8.03;6.57;;;15.70;1.00;;;;;;5136173;28;20894;-47
2023/05/28 05:31:31;;;;;;;6.60;5.60;;;15.80;1.00;;;;;;5135779;28;20466;-50
2023/05/28 05:33:57;;;;;;;7.93;7.13;;;15.90;1.00;;;;;;5136493;28;20287;-48
2023/05/28 05:36:22;;;;;;;8.43;6.23;;;16.00;1.00;;;;;;5136949;28;20190;-46
2023/05/28 05:38:48;;;;;;;8.23;6.80;;;16.00;1.00;;;;;;5135643;28;20251;-46
2023/05/28 05:41:13;;;;;;;7.60;6.50;;;16.00;1.00;;;;;;5137343;28;20270;-48
2023/05/28 05:43:39;;;;;;;8.50;7.03;;;16.10;1.00;;;;;;5136750;28;20196;-47
2023/05/28 05:46:05;;;;;;;8.03;6.40;;;16.20;1.00;;;;;;5137164;28;20187;-47
2023/05/28 05:48:30;;;;;;;8.77;6.57;;;16.40;1.00;;;;;;5136580;28;20179;-47
2023/05/28 05:50:58;;;;;;;8.17;6.80;;;16.50;1.00;;;;;;5136902;28;20183;-48
2023/05/28 05:53:24;;;;;;;7.20;6.50;;;16.60;1.00;;;;;;5135313;28;20525;-47
2023/05/28 05:55:50;;;;;;;10.23;7.33;;;16.80;1.00;;;;;;5133565;28;20401;-50
2023/05/28 05:58:16;;;;;;;12.63;7.63;;;16.90;1.00;;;;;;5132857;28;20409;-49
2023/05/28 06:00:42;;;;;;;8.90;6.80;;;16.90;1.00;;;;;;5137725;27;20500;-49
2023/05/28 06:03:07;;;;;;;9.50;5.37;;;17.00;1.00;;;;;;5138154;27;20218;-48
2023/05/28 06:05:39;;;;;;;9.63;6.97;;;17.20;1.00;;;;;;5136865;27;20662;-48
2023/05/28 06:08:05;;;;;;;10.40;6.80;;;17.30;1.00;;;;;;5137395;27;20603;-50
2023/05/28 06:10:30;;;;;;;8.73;6.10;;;17.50;1.00;;;;;;5136991;27;20523;-48
2023/05/28 06:13:02;;;;;;;9.43;6.03;;;17.70;1.00;;;;;;5138147;27;20210;-47
2023/05/28 06:15:28;;;;;;;7.23;6.53;;;17.90;1.00;;;;;;5138837;27;20260;-48
2023/05/28 06:17:55;;;;;;;6.17;5.57;;;18.10;1.00;;;;;;5139956;27;20493;-47
2023/05/28 06:20:21;;;;;;;7.27;6.43;;;18.30;1.00;;;;;;5139112;27;20437;-48
2023/05/28 06:22:47;;;;;;;10.60;6.30;;;18.40;1.00;;;;;;5138008;27;20533;-50
2023/05/28 06:25:12;;;;;;;10.27;7.30;;;18.60;1.00;;;;;;5137830;27;20794;-48
2023/05/28 06:27:38;;;;;;;11.33;6.13;;;18.70;1.00;;;;;;5139857;27;20175;-48
2023/05/28 06:30:04;;;;;;;10.50;6.20;;;18.70;1.00;;;;;;5138791;27;20210;-47
2023/05/28 06:32:31;;;;;;;9.33;6.40;;;18.80;1.00;;;;;;5139850;27;20190;-47
2023/05/28 06:34:57;;;;;;;7.70;6.07;;;18.80;1.00;;;;;;5139648;27;20416;-49
2023/05/28 06:37:22;;;;;;;9.30;6.13;;;18.90;1.00;;;;;;5140843;27;20432;-48
2023/05/28 06:39:48;;;;;;;8.60;6.00;;;19.00;1.00;;;;;;5140164;27;20433;-48
2023/05/28 06:42:13;;;;;;;9.07;5.90;;;19.00;1.00;;;;;;5140426;27;20240;-48
2023/05/28 06:44:39;;;;;;;9.30;5.80;;;19.10;1.00;;;;;;5139976;27;20418;-48
2023/05/28 06:47:05;;;;;;;6.87;5.53;;;19.20;1.00;;;;;;5120749;27;20191;-49
2023/05/28 06:49:30;;;;;;;9.67;4.97;;;19.30;1.00;;;;;;5139340;27;20159;-49
2023/05/28 06:51:56;;;;;;;10.90;6.73;;;19.40;1.00;;;;;;5139711;27;20725;-50
2023/05/28 06:54:22;;;;;;;9.93;5.47;;;19.30;1.00;;;;;;5139039;27;20190;-48
2023/05/28 06:56:47;;;;;;;12.30;5.97;;;19.20;1.00;;;;;;5137976;27;20524;-48
2023/05/28 06:59:13;;;;;;;12.10;6.73;;;19.00;1.00;;;;;;5136880;27;20179;-47
2023/05/28 07:01:38;;;;;;;7.60;5.67;;;18.90;1.00;;;;;;5137911;27;20207;-48
2023/05/28 07:04:04;;;;;;;7.33;5.90;;;18.90;1.00;;;;;;5137976;27;20189;-49
2023/05/28 07:06:30;;;;;;;11.13;5.57;;;18.90;1.00;;;;;;5135596;27;20188;-48
2023/05/28 07:08:55;;;;;;;8.20;5.33;;;18.90;1.00;;;;;;5137345;27;20433;-49
2023/05/28 07:11:21;;;;;;;7.70;5.23;;;19.10;1.00;;;;;;5116711;27;20195;-52
2023/05/28 07:13:47;;;;;;;10.23;5.33;;;19.10;1.00;;;;;;5136543;27;20179;-46
2023/05/28 07:16:13;;;;;;;8.90;5.33;;;19.30;1.00;;;;;;5118344;27;20683;-50
2023/05/28 07:18:39;;;;;;;8.60;5.93;;;19.60;1.00;;;;;;5120031;27;20866;-49
2023/05/28 07:21:07;;;;;;;6.13;5.37;;;19.70;1.00;;;;;;5138196;27;20187;-47
2023/05/28 07:23:33;;;;;;;7.70;4.90;;;19.90;1.00;;;;;;5138348;27;20246;-47
2023/05/28 07:25:59;;;;;;;6.17;5.23;;;20.10;1.00;;;;;;5119452;27;20416;-49
2023/05/28 07:28:25;;;;;;;7.77;5.00;;;20.20;1.00;;;;;;5137077;27;20424;-51
2023/05/28 07:30:51;;;;;;;8.17;6.03;;;20.20;1.00;;;;;;5137801;27;21073;-48
2023/05/28 07:33:16;;;;;;;9.63;5.87;;;20.30;1.00;;;;;;5138020;27;20429;-51
2023/05/28 07:35:42;;;;;;;7.30;5.53;;;20.40;1.00;;;;;;5137856;27;20457;-48
2023/05/28 07:38:10;;;;;;;10.70;5.57;;;20.50;1.00;;;;;;5136520;27;20244;-51
2023/05/28 07:40:36;;;;;;;7.47;5.80;;;20.60;1.00;;;;;;5138056;27;20212;-48
2023/05/28 07:43:01;;;;;;;9.03;5.47;;;20.80;1.00;;;;;;5119943;27;20488;-48
2023/05/28 07:45:27;;;;;;;9.23;5.47;;;20.90;1.00;;;;;;5138939;27;20183;-49
2023/05/28 07:47:53;;;;;;;8.97;5.30;;;21.10;1.00;;;;;;5137446;27;20206;-48
2023/05/28 07:50:18;;;;;;;8.90;6.10;;;21.40;1.00;;;;;;5130603;27;20180;-48
2023/05/28 07:52:44;;;;;;;6.07;5.10;;;21.70;1.00;;;;;;5115792;28;20267;-48
2023/05/28 07:55:09;;;;;;;8.63;4.93;;;21.90;1.00;;;;;;5114663;28;20554;-50
2023/05/28 07:57:35;;;;;;;9.23;6.23;;;22.20;1.00;;;;;;5114129;28;20239;-48
2023/05/28 08:00:05;;;;;;;7.30;4.93;;;22.50;1.00;;;;;;5114741;28;20560;-51
2023/05/28 08:02:31;;;;;;;7.83;5.60;;;22.50;1.00;;;;;;5116244;28;20743;-50
2023/05/28 08:04:57;;;;;;;8.40;4.90;;;22.40;1.00;;;;;;5098286;28;20417;-51
2023/05/28 08:07:22;;;;;;;9.43;5.63;;;22.50;1.00;;;;;;5115793;28;20179;-48
2023/05/28 08:09:48;;;;;;;8.00;5.20;;;22.60;1.00;;;;;;5116952;28;20190;-49
2023/05/28 08:12:14;;;;;;;10.33;7.20;;;22.60;1.00;;;;;;5116397;28;20211;-47
2023/05/28 08:14:40;;;;;;;9.20;5.57;;;22.60;1.00;;;;;;5115934;28;20175;-48
2023/05/28 08:17:05;;;;;;;7.60;4.73;;;22.50;1.00;;;;;;5116312;28;20432;-49
2023/05/28 08:19:31;;;;;;;6.13;5.30;;;22.70;1.00;;;;;;5114084;28;20171;-49
2023/05/28 08:21:57;;;;;;;7.90;5.77;;;22.90;1.00;;;;;;5112869;28;20219;-47
2023/05/28 08:24:23;;;;;;;5.80;4.50;;;22.90;1.00;;;;;;5113185;28;20186;-47
2023/05/28 08:26:48;;;;;;;7.63;5.20;;;23.20;1.00;;;;;;5114546;28;20430;-49
2023/05/28 08:29:14;;;;;;;10.47;6.00;;;23.50;1.00;;;;;;5112802;28;20179;-48
2023/05/28 08:31:40;;;;;;;9.57;5.80;;;23.80;1.00;;;;;;5113356;28;20544;-49
2023/05/28 08:34:05;;;;;;;6.10;5.20;;;23.90;1.00;;;;;;5115054;28;20558;-49
2023/05/28 08:36:31;;;;;;;11.70;6.17;;;24.20;1.00;;;;;;5115968;28;20186;-46
2023/05/28 08:38:58;;;;;;;8.30;5.60;;;24.50;1.00;;;;;;5115148;28;20195;-48
2023/05/28 08:41:25;;;;;;;9.63;6.10;;;24.90;1.00;;;;;;5096412;28;20211;-47
2023/05/28 08:43:51;;;;;;;6.43;5.20;;;25.10;1.00;;;;;;5113564;28;20440;-48
2023/05/28 08:46:18;;;;;;;7.20;4.97;;;25.50;1.00;;;;;;5113948;28;20411;-47
2023/05/28 08:48:44;;;;;;;8.07;5.57;;;25.80;1.00;;;;;;5113959;28;20540;-48
2023/05/28 08:51:11;;;;;;;7.30;5.20;;;26.10;1.00;;;;;;5095043;28;20952;-46
2023/05/28 08:53:40;;;;;;;8.90;6.10;;;26.40;1.00;;;;;;5115319;28;20432;-48
2023/05/28 08:56:08;;;;;;;8.50;5.10;;;26.60;1.00;;;;;;5112937;28;20553;-48
2023/05/28 08:58:36;;;;;;;7.03;5.30;;;26.60;1.00;;;;;;5112403;28;20690;-47
2023/05/28 09:01:06;;;;;;;6.63;4.83;;;26.60;1.00;;;;;;5112107;28;20429;-48
2023/05/28 09:03:33;;;;;;;6.70;5.10;;;26.80;1.00;;;;;;5095414;28;20850;-47
2023/05/28 09:05:59;;;;;;;9.10;6.10;;;27.10;1.00;;;;;;5114045;28;20413;-50
2023/05/28 09:08:25;;;;;;;12.13;7.40;;;27.30;1.00;;;;;;5113991;28;20817;-50
2023/05/28 09:10:51;;;;;;;8.00;6.57;;;26.90;1.00;;;;;;5095999;28;20823;-47
2023/05/28 09:13:23;;;;;;;6.97;5.93;;;26.40;1.00;;;;;;5114354;28;20376;-48
2023/05/28 09:15:52;;;;;;;8.93;5.97;;;26.00;1.00;;;;;;5080131;28;20289;-48
2023/05/28 09:18:23;;;;;;;6.87;5.13;;;25.80;1.00;;;;;;5095418;28;20648;-47
2023/05/28 09:20:49;;;;;;;7.27;5.90;;;25.80;1.00;;;;;;5096678;28;20420;-47
2023/05/28 09:23:17;;;;;;;7.00;5.50;;;26.00;1.00;;;;;;5113787;28;20469;-47
2023/05/28 09:25:44;;;;;;;9.80;6.23;;;26.20;1.00;;;;;;5114949;28;20837;-49
2023/05/28 09:28:13;;;;;;;6.20;5.10;;;26.60;1.00;;;;;;5113346;28;20409;-49
2023/05/28 09:30:38;;;;;;;9.20;6.40;;;26.70;1.00;;;;;;5113735;28;20428;-49
2023/05/28 09:33:05;;;;;;;6.70;5.10;;;26.90;1.00;;;;;;5096286;28;20835;-48
2023/05/28 09:35:31;;;;;;;11.83;5.13;;;27.10;1.00;;;;;;5117741;28;20205;-47
2023/05/28 09:38:07;;;;;;;8.23;6.10;;;27.10;1.00;;;;;;5118632;28;20384;-47
2023/05/28 09:40:41;;;;;;;8.40;5.60;;;27.10;1.00;;;;;;5101592;28;20409;-45
2023/05/28 09:43:08;;;;;;;9.40;5.97;;;26.80;1.00;;;;;;5117709;28;20496;-47
2023/05/28 09:45:34;;;;;;;7.90;5.73;;;26.80;1.00;;;;;;5117706;28;20417;-47
2023/05/28 09:48:00;;;;;;;9.07;6.10;;;26.90;1.00;;;;;;5119376;28;20807;-47
2023/05/28 09:50:26;;;;;;;7.70;5.90;;;27.10;1.00;;;;;;5119262;28;20462;-50
2023/05/28 09:52:55;;;;;;;7.43;5.10;;;27.40;1.00;;;;;;5118730;28;20424;-48
2023/05/28 09:55:24;;;;;;;10.00;6.43;;;27.40;1.00;;;;;;5118190;28;20828;-49
2023/05/28 09:58:09;;;;;;;8.47;6.10;;;27.30;1.00;;;;;;5115572;28;20773;-49
2023/05/28 10:00:40;;;;;;;8.60;5.27;;;27.60;1.00;;;;;;5116735;28;20874;-48
2023/05/28 10:03:28;;;;;;;7.60;5.20;;;27.90;1.00;;;;;;5097737;28;20842;-55
2023/05/28 10:05:59;;;;;;;12.00;6.00;;;28.20;1.00;;;;;;5116394;28;20562;-49
2023/05/28 10:08:25;;;;;;;6.67;5.30;;;28.60;1.00;;;;;;5114841;28;20512;-49
2023/05/28 10:10:53;;;;;;;8.60;5.77;;;28.40;1.00;;;;;;5097212;28;20866;-48
2023/05/28 10:13:19;;;;;;;9.53;4.97;;;28.30;1.00;;;;;;5116841;28;20472;-49
2023/05/28 10:15:45;;;;;;;6.17;4.97;;;27.70;1.00;;;;;;5116585;28;20791;-50
2023/05/28 10:18:14;;;;;;;6.67;5.13;;;27.60;1.00;;;;;;5115697;28;20748;-49
2023/05/28 10:20:40;;;;;;;8.93;6.23;;;28.00;1.00;;;;;;5118041;28;20504;-48
2023/05/28 10:23:07;;;;;;;7.00;5.40;;;28.40;1.00;;;;;;5100013;28;20480;-48
2023/05/28 10:25:32;;;;;;;10.30;5.87;;;28.50;1.00;;;;;;5118690;28;20408;-48
2023/05/28 10:28:02;;;;;;;9.20;5.67;;;28.40;1.00;;;;;;5099847;28;20950;-48
2023/05/28 10:30:32;;;;;;;7.53;5.83;;;28.20;1.00;;;;;;5117310;28;20215;-48
2023/05/28 10:32:57;;;;;;;6.57;5.87;;;27.90;1.00;;;;;;5117049;28;20427;-50
2023/05/28 10:35:23;;;;;;;7.10;5.20;;;27.70;1.00;;;;;;5116290;28;20567;-48
2023/05/28 10:37:49;;;;;;;9.53;6.40;;;27.50;1.00;;;;;;5116515;28;20176;-49
2023/05/28 10:40:24;;;;;;;7.53;5.63;;;27.40;1.00;;;;;;5115574;28;20271;-51
2023/05/28 10:42:50;;;;;;;8.50;5.87;;;27.80;1.00;;;;;;5115059;28;20297;-49
2023/05/28 10:45:15;;;;;;;8.83;6.27;;;28.30;1.00;;;;;;5114362;28;20512;-51
2023/05/28 10:47:50;;;;;;;6.80;6.10;;;29.10;1.00;;;;;;5115528;28;20732;-48
2023/05/28 10:50:17;;;;;;;7.67;5.50;;;29.60;1.00;;;;;;5116270;28;20252;-48
2023/05/28 10:53:02;;;;;;;6.53;5.80;;;30.00;1.00;;;;;;5116317;28;20423;-48
2023/05/28 10:55:28;;;;;;;6.57;5.30;;;30.60;1.00;;;;;;5116716;28;20391;-50
2023/05/28 10:58:07;;;;;;;8.53;5.30;;;31.00;1.00;;;;;;5117932;28;20755;-49
2023/05/28 11:00:40;;;;;;;8.03;5.90;;;31.30;1.00;;;;;;5116555;28;20191;-49
2023/05/28 11:03:05;;;;;;;6.27;5.57;;;31.60;1.00;;;;;;5116764;28;20479;-50
2023/05/28 11:05:31;;;;;;;8.10;6.07;;;31.30;1.00;;;;;;5116078;28;20437;-49
2023/05/28 11:07:58;;;;;;;11.20;5.77;;;31.60;1.00;;;;;;5122525;27;20426;-52
2023/05/28 11:10:23;;;;;;;7.27;5.73;;;32.10;1.00;;;;;;5127409;27;20189;-50
2023/05/28 11:12:50;;;;;;;8.50;5.90;;;32.30;1.00;;;;;;5105659;27;20419;-49
2023/05/28 11:15:16;;;;;;;6.67;6.03;;;32.50;1.00;;;;;;5097322;28;20240;-50
2023/05/28 11:17:46;;;;;;;6.37;5.77;;;32.70;1.00;;;;;;5119446;27;20425;-49
2023/05/28 11:20:24;;;;;;;8.00;6.73;;;32.30;1.00;;;;;;5125926;27;20636;-50
2023/05/28 11:22:50;;;;;;;6.43;5.83;;;32.00;1.00;;;;;;5125528;27;20428;-48
2023/05/28 11:25:15;;;;;;;8.23;5.83;;;31.60;1.00;;;;;;5125830;27;20412;-48
2023/05/28 11:27:42;;;;;;;6.00;5.40;;;31.90;1.00;;;;;;5109849;27;20314;-53
2023/05/28 11:30:11;;;;;;;9.73;6.70;;;32.30;1.00;;;;;;5126680;27;20172;-49
2023/05/28 11:32:37;;;;;;;7.93;6.70;;;32.90;1.00;;;;;;5118654;27;20425;-52
2023/05/28 11:35:04;;;;;;;6.53;5.80;;;32.90;1.00;;;;;;5116210;28;20476;-51
2023/05/28 11:37:34;;;;;;;6.23;5.33;;;32.70;1.00;;;;;;5115259;28;20952;-49
2023/05/28 11:40:01;;;;;;;9.37;6.00;;;32.80;1.00;;;;;;5117824;27;20529;-54
2023/05/28 11:42:27;;;;;;;7.40;6.00;;;33.00;1.00;;;;;;5116497;28;20509;-54
2023/05/28 11:44:53;;;;;;;7.70;6.90;;;33.20;1.00;;;;;;5124204;27;20455;-56
2023/05/28 11:47:19;;;;;;;6.93;6.17;;;33.10;1.00;;;;;;5124957;27;20437;-58
2023/05/28 11:49:48;;;;;;;8.37;6.50;;;32.30;1.00;;;;;;5124813;27;20468;-54
2023/05/28 11:52:19;;;;;;;7.43;6.73;;;32.10;1.00;;;;;;5126130;27;20510;-53
2023/05/28 11:54:46;;;;;;;7.73;6.90;;;32.30;1.00;;;;;;5125178;27;20443;-57
2023/05/28 11:57:23;;;;;;;6.80;6.10;;;32.60;1.00;;;;;;5123129;27;20440;-62
2023/05/28 12:00:19;;;;;;;8.30;6.47;;;32.70;1.00;;;;;;5125232;27;20406;-57
2023/05/28 12:02:51;;;;;;;7.80;6.20;;;33.20;1.00;;;;;;5132315;27;20544;-57
2023/05/28 12:05:18;;;;;;;7.33;6.67;;;33.80;1.00;;;;;;5136717;27;20498;-55
2023/05/28 12:07:46;;;;;;;8.33;5.97;;;34.20;1.00;;;;;;5111719;27;20391;-57
2023/05/28 12:10:13;;;;;;;8.00;6.20;;;34.30;1.00;;;;;;5136476;27;20413;-57
2023/05/28 12:12:55;;;;;;;6.47;5.43;;;34.10;1.00;;;;;;5107135;27;20474;-55
2023/05/28 12:15:22;;;;;;;8.70;6.77;;;33.60;1.00;;;;;;5125237;27;20439;-54
2023/05/28 12:17:53;;;;;;;7.53;6.83;;;33.00;1.00;;;;;;5125893;27;20435;-55
2023/05/28 12:20:19;;;;;;;8.70;6.60;;;32.70;1.00;;;;;;5135317;27;20694;-54
2023/05/28 12:22:45;;;;;;;8.20;7.10;;;32.40;1.00;;;;;;5135565;27;20427;-57
2023/05/28 12:25:11;;;;;;;9.00;7.10;;;32.60;1.00;;;;;;5124142;27;20445;-59
2023/05/28 12:27:37;;;;;;;7.20;6.50;;;32.70;1.00;;;;;;5125008;27;20168;-58
2023/05/28 12:30:04;;;;;;;9.43;6.70;;;32.60;1.00;;;;;;5109741;27;20691;-55
2023/05/28 12:32:30;;;;;;;7.70;7.00;;;32.00;1.00;;;;;;5125471;27;20425;-56
2023/05/28 12:34:56;;;;;;;8.83;7.50;;;32.00;1.00;;;;;;5124464;27;20396;-56
2023/05/28 12:37:27;;;;;;;7.23;6.53;;;31.70;1.00;;;;;;5089921;27;20252;-52
2023/05/28 12:39:53;;;;;;;8.07;7.03;;;31.40;1.00;;;;;;5124629;27;20762;-58
2023/05/28 12:42:19;;;;;;;9.83;6.20;;;31.70;1.00;;;;;;5122984;27;20432;-56
2023/05/28 12:44:44;;;;;;;9.93;6.60;;;32.30;1.00;;;;;;5120681;27;20611;-56
2023/05/28 12:47:11;;;;;;;6.73;6.10;;;32.80;1.00;;;;;;5124721;27;20407;-55
2023/05/28 12:49:36;;;;;;;10.47;7.40;;;33.30;1.00;;;;;;5087523;27;20585;-56
2023/05/28 12:52:02;;;;;;;12.07;7.47;;;33.70;1.00;;;;;;5122926;27;20541;-58
2023/05/28 12:54:28;;;;;;;8.27;6.37;;;33.80;1.00;;;;;;5124829;27;20179;-57